Time;durP1;ratioP1;P1;durP2;ratioP2;P2;SDS_P1;SDS_P2;PMS_P1;PMS_P2;Temp;Humidity;BMP_temperature;BMP_pressure;BME280_temperature;BME280_humidity;BME280_pressure;Samples;Min_cycle;Max_cycle;Signal;HPM_P1;HPM_P2
2022/06/17 00:01:46;;;;;;;3.93;2.70;;;;;;;;;;5011976;28;20256;-92
2022/06/17 00:04:14;;;;;;;3.23;1.90;;;;;;;;;;5011940;28;20278;-92
2022/06/17 00:06:42;;;;;;;3.30;1.93;;;;;;;;;;5011916;28;20201;-92
2022/06/17 00:09:12;;;;;;;5.53;2.57;;;;;;;;;;5012117;28;20203;-92
2022/06/17 00:11:39;;;;;;;4.40;2.07;;;;;;;;;;5012122;28;20201;-92
2022/06/17 00:14:10;;;;;;;1.90;1.77;;;;;;;;;;5011777;28;20205;-92
2022/06/17 00:16:37;;;;;;;2.10;2.00;;;;;;;;;;5011693;28;20204;-92
2022/06/17 00:19:06;;;;;;;1.90;1.80;;;;;;;;;;5011972;28;20201;-93
2022/06/17 00:21:34;;;;;;;2.50;2.30;;;;;;;;;;5011564;28;20196;-93
2022/06/17 00:24:02;;;;;;;2.20;2.10;;;;;;;;;;5011783;28;20214;-92
2022/06/17 00:26:29;;;;;;;3.77;2.30;;;;;;;;;;5011783;28;20199;-92
2022/06/17 00:28:56;;;;;;;2.80;2.60;;;;;;;;;;5011878;28;20209;-92
2022/06/17 00:31:23;;;;;;;3.43;2.63;;;;;;;;;;5011849;28;20204;-92
2022/06/17 00:33:50;;;;;;;9.20;2.80;;;;;;;;;;5011819;28;20204;-92
2022/06/17 00:36:19;;;;;;;3.97;2.33;;;;;;;;;;5011553;28;20579;-93
2022/06/17 00:38:47;;;;;;;2.90;1.90;;;;;;;;;;5011362;28;20203;-92
2022/06/17 00:41:18;;;;;;;2.40;2.20;;;;;;;;;;5012008;28;20695;-93
2022/06/17 00:43:45;;;;;;;3.20;2.40;;;;;;;;;;5011677;28;20197;-92
2022/06/17 00:46:25;;;;;;;3.83;2.53;;;;;;;;;;5011161;28;20235;-93
2022/06/17 00:48:58;;;;;;;2.57;2.37;;;;;;;;;;5011555;28;20217;-93
2022/06/17 00:51:30;;;;;;;5.20;1.90;;;;;;;;;;5011348;28;20268;-93
2022/06/17 00:54:00;;;;;;;3.23;2.33;;;;;;;;;;5012024;28;20617;-93
2022/06/17 00:56:31;;;;;;;6.67;2.60;;;;;;;;;;5011404;28;20198;-94
2022/06/17 00:59:02;;;;;;;2.80;2.60;;;;;;;;;;5011175;28;20666;-92
2022/06/17 01:01:33;;;;;;;3.67;2.07;;;;;;;;;;5011174;28;20256;-93
2022/06/17 01:04:02;;;;;;;1.97;1.80;;;;;;;;;;5011192;28;20229;-93
2022/06/17 01:06:34;;;;;;;2.60;2.40;;;;;;;;;;5011435;28;20279;-93
2022/06/17 01:11:49;;;;;;;6.40;3.07;;;;;;;;;;5011061;28;20312;-93
2022/06/17 01:14:18;;;;;;;2.37;2.10;;;;;;;;;;5011028;28;20198;-92
2022/06/17 01:16:46;;;;;;;8.60;2.13;;;;;;;;;;5010772;28;20219;-94
2022/06/17 01:19:21;;;;;;;3.27;2.60;;;;;;;;;;5010941;28;20725;-93
2022/06/17 01:21:52;;;;;;;2.73;2.40;;;;;;;;;;5011162;28;20209;-94
2022/06/17 01:24:21;;;;;;;2.23;2.03;;;;;;;;;;5011042;28;20628;-93
2022/06/17 01:26:48;;;;;;;2.57;2.37;;;;;;;;;;5010918;28;20207;-92
2022/06/17 01:29:15;;;;;;;5.03;2.20;;;;;;;;;;5010775;28;20200;-93
2022/06/17 01:31:46;;;;;;;3.40;2.73;;;;;;;;;;5010810;28;20195;-93
2022/06/17 01:34:15;;;;;;;3.17;2.30;;;;;;;;;;5010705;28;20207;-93
2022/06/17 01:36:44;;;;;;;3.03;1.97;;;;;;;;;;5010588;28;20257;-93
2022/06/17 01:39:13;;;;;;;4.53;2.40;;;;;;;;;;5010668;28;20195;-93
2022/06/17 01:41:43;;;;;;;3.63;2.23;;;;;;;;;;5010328;28;20206;-92
2022/06/17 01:44:17;;;;;;;2.67;1.97;;;;;;;;;;5010755;28;20207;-93
2022/06/17 01:46:46;;;;;;;3.57;2.47;;;;;;;;;;5010195;28;20260;-92
2022/06/17 01:49:17;;;;;;;2.47;2.33;;;;;;;;;;5010507;28;20214;-93
2022/06/17 01:51:49;;;;;;;2.47;2.20;;;;;;;;;;5010547;28;20208;-92
2022/06/17 01:54:20;;;;;;;5.63;2.67;;;;;;;;;;5010652;28;20191;-93
2022/06/17 01:56:50;;;;;;;2.40;2.20;;;;;;;;;;5010482;28;20231;-93
2022/06/17 01:59:22;;;;;;;2.07;1.97;;;;;;;;;;5010412;28;20286;-93
2022/06/17 02:01:51;;;;;;;3.60;2.37;;;;;;;;;;5010558;28;20625;-92
2022/06/17 02:04:20;;;;;;;3.30;2.20;;;;;;;;;;5010273;28;20636;-93
2022/06/17 02:06:50;;;;;;;1.83;1.73;;;;;;;;;;5010238;28;20207;-93
2022/06/17 02:09:17;;;;;;;2.60;2.40;;;;;;;;;;5010423;28;20215;-92
2022/06/17 02:11:45;;;;;;;2.30;2.10;;;;;;;;;;5010318;28;20203;-92
2022/06/17 02:14:14;;;;;;;3.70;2.37;;;;;;;;;;5010496;28;20622;-93
2022/06/17 02:16:43;;;;;;;2.37;2.17;;;;;;;;;;5010415;28;20207;-94
2022/06/17 02:19:10;;;;;;;2.27;2.07;;;;;;;;;;5010162;28;20203;-93
2022/06/17 02:21:41;;;;;;;2.53;2.20;;;;;;;;;;5010555;28;20225;-94
2022/06/17 02:24:10;;;;;;;2.77;2.40;;;;;;;;;;5013899;28;20256;-93
2022/06/17 02:26:39;;;;;;;3.97;1.93;;;;;;;;;;5013661;28;20207;-93
2022/06/17 02:29:10;;;;;;;5.43;2.60;;;;;;;;;;5013798;28;20199;-93
2022/06/17 02:31:40;;;;;;;2.47;2.27;;;;;;;;;;5013562;28;20203;-93
2022/06/17 02:34:09;;;;;;;2.93;2.63;;;;;;;;;;5013781;28;20256;-93
2022/06/17 02:36:41;;;;;;;3.37;2.33;;;;;;;;;;5013267;28;20199;-93
2022/06/17 02:39:11;;;;;;;3.23;2.27;;;;;;;;;;5013184;28;20737;-94
2022/06/17 02:41:39;;;;;;;2.83;2.50;;;;;;;;;;5013436;28;20195;-93
2022/06/17 02:44:11;;;;;;;4.57;2.90;;;;;;;;;;5013572;28;20645;-93
2022/06/17 02:46:42;;;;;;;3.83;2.20;;;;;;;;;;5013118;28;20617;-94
2022/06/17 02:49:22;;;;;;;3.20;2.97;;;;;;;;;;5013174;28;20286;-93
2022/06/17 02:51:50;;;;;;;3.70;2.63;;;;;;;;;;5013330;28;20207;-93
2022/06/17 02:54:21;;;;;;;3.20;2.40;;;;;;;;;;5013395;28;20199;-93
2022/06/17 02:56:50;;;;;;;2.83;2.60;;;;;;;;;;5012955;28;20201;-94
2022/06/17 02:59:25;;;;;;;4.93;2.97;;;;;;;;;;5013021;28;20204;-94
2022/06/17 03:02:09;;;;;;;2.80;2.53;;;;;;;;;;5013016;28;20724;-93
2022/06/17 03:04:36;;;;;;;2.43;2.27;;;;;;;;;;5013103;28;20210;-93
2022/06/17 03:07:06;;;;;;;2.93;2.73;;;;;;;;;;5012881;28;20200;-94
2022/06/17 03:09:34;;;;;;;4.13;3.77;;;;;;;;;;5012862;28;20198;-94
2022/06/17 03:12:04;;;;;;;4.33;2.30;;;;;;;;;;5013021;28;20610;-93
2022/06/17 03:14:37;;;;;;;3.20;2.90;;;;;;;;;;5012890;28;20649;-95
2022/06/17 03:17:09;;;;;;;4.70;2.93;;;;;;;;;;5013074;28;20547;-93
2022/06/17 03:19:37;;;;;;;5.07;2.40;;;;;;;;;;5012865;28;20249;-94
2022/06/17 03:22:05;;;;;;;2.77;2.57;;;;;;;;;;5012942;28;20294;-93
2022/06/17 03:24:38;;;;;;;2.53;2.33;;;;;;;;;;5012680;28;20270;-93
2022/06/17 03:27:10;;;;;;;3.40;3.10;;;;;;;;;;5012912;28;20615;-94
2022/06/17 03:29:38;;;;;;;3.67;2.83;;;;;;;;;;5012554;28;20559;-94
2022/06/17 03:32:09;;;;;;;3.70;3.40;;;;;;;;;;5012481;28;20256;-94
2022/06/17 03:34:39;;;;;;;4.10;2.67;;;;;;;;;;5011395;28;20227;-93
2022/06/17 03:37:10;;;;;;;4.30;3.00;;;;;;;;;;5012383;28;20203;-94
2022/06/17 03:39:40;;;;;;;3.27;2.73;;;;;;;;;;5012537;28;20645;-93
2022/06/17 03:42:11;;;;;;;7.77;3.87;;;;;;;;;;5012373;28;20199;-94
2022/06/17 03:44:43;;;;;;;3.47;3.17;;;;;;;;;;5012667;28;20203;-92
2022/06/17 03:47:16;;;;;;;6.90;2.70;;;;;;;;;;5010195;28;20235;-84
2022/06/17 03:49:45;;;;;;;7.00;3.33;;;;;;;;;;5010862;28;20195;-86
2022/06/17 03:52:17;;;;;;;3.43;2.80;;;;;;;;;;5011023;28;20199;-85
2022/06/17 03:54:44;;;;;;;3.57;3.00;;;;;;;;;;5011511;28;20192;-86
2022/06/17 03:57:12;;;;;;;5.17;2.83;;;;;;;;;;5011208;28;20672;-84
2022/06/17 03:59:43;;;;;;;3.13;2.93;;;;;;;;;;5011284;28;20206;-84
2022/06/17 04:02:14;;;;;;;3.00;2.63;;;;;;;;;;5011204;28;20245;-85
2022/06/17 04:04:43;;;;;;;6.03;2.93;;;;;;;;;;5012857;28;20200;-80
2022/06/17 04:07:12;;;;;;;3.70;3.40;;;;;;;;;;5010386;28;20248;-81
2022/06/17 04:09:42;;;;;;;5.43;3.33;;;;;;;;;;5011100;28;20294;-80
2022/06/17 04:12:20;;;;;;;3.97;3.10;;;;;;;;;;5010395;28;20241;-80
2022/06/17 04:14:51;;;;;;;4.93;3.40;;;;;;;;;;5010949;28;20223;-80
2022/06/17 04:17:24;;;;;;;3.50;3.20;;;;;;;;;;5010894;28;20565;-80
2022/06/17 04:20:04;;;;;;;5.60;3.00;;;;;;;;;;5011641;28;20188;-80
2022/06/17 04:22:35;;;;;;;5.87;3.13;;;;;;;;;;5030640;28;20194;-80
2022/06/17 04:25:05;;;;;;;3.67;2.93;;;;;;;;;;5030588;28;20226;-80
2022/06/17 04:30:15;;;;;;;3.90;2.90;;;;;;;;;;5030078;28;20209;-80
2022/06/17 04:32:43;;;;;;;3.20;2.90;;;;;;;;;;5029811;28;20203;-81
2022/06/17 04:35:13;;;;;;;3.77;3.47;;;;;;;;;;5030421;28;20667;-80
2022/06/17 04:37:41;;;;;;;4.40;3.80;;;;;;;;;;5020105;28;20258;-80
2022/06/17 04:40:15;;;;;;;4.33;3.20;;;;;;;;;;5010257;28;20688;-80
2022/06/17 04:42:43;;;;;;;7.33;3.83;;;;;;;;;;5010479;28;20192;-80
2022/06/17 04:45:18;;;;;;;5.77;3.83;;;;;;;;;;5009958;28;20231;-80
2022/06/17 04:47:46;;;;;;;3.93;3.30;;;;;;;;;;5011888;28;20188;-80
2022/06/17 04:50:16;;;;;;;4.47;3.40;;;;;;;;;;5030174;28;20251;-81
2022/06/17 04:52:45;;;;;;;5.20;3.40;;;;;;;;;;5029777;28;20260;-80
2022/06/17 04:55:15;;;;;;;6.53;3.23;;;;;;;;;;5029800;28;20199;-80
2022/06/17 04:57:42;;;;;;;3.00;2.80;;;;;;;;;;5029721;28;20184;-81
2022/06/17 05:00:16;;;;;;;3.83;3.53;;;;;;;;;;5029682;28;20288;-81
2022/06/17 05:02:43;;;;;;;3.43;3.10;;;;;;;;;;5029367;28;20216;-80
2022/06/17 05:05:14;;;;;;;4.87;2.67;;;;;;;;;;5029584;28;20261;-80
2022/06/17 05:07:43;;;;;;;3.67;3.43;;;;;;;;;;5029815;28;20187;-80
2022/06/17 05:10:17;;;;;;;4.37;3.00;;;;;;;;;;5029806;28;20197;-81
2022/06/17 05:12:47;;;;;;;4.10;3.50;;;;;;;;;;5029819;28;20225;-80
2022/06/17 05:15:15;;;;;;;10.73;4.10;;;;;;;;;;5029696;28;20708;-81
2022/06/17 05:17:42;;;;;;;3.90;3.37;;;;;;;;;;5029173;28;20292;-80
2022/06/17 05:20:15;;;;;;;4.77;3.20;;;;;;;;;;5029552;28;20202;-81
2022/06/17 05:22:45;;;;;;;3.83;3.43;;;;;;;;;;5029320;28;20229;-81
2022/06/17 05:25:15;;;;;;;4.93;3.60;;;;;;;;;;5030173;28;20248;-80
2022/06/17 05:27:42;;;;;;;3.80;2.87;;;;;;;;;;5029373;28;20276;-80
2022/06/17 05:30:11;;;;;;;4.07;3.27;;;;;;;;;;5029404;28;20259;-81
2022/06/17 05:32:39;;;;;;;3.33;3.13;;;;;;;;;;5029139;28;20208;-81
2022/06/17 05:35:06;;;;;;;2.70;2.57;;;;;;;;;;5029413;28;20208;-80
2022/06/17 05:37:35;;;;;;;3.30;3.00;;;;;;;;;;5029414;28;20686;-81
2022/06/17 05:40:03;;;;;;;4.47;3.20;;;;;;;;;;5029233;28;20309;-80
2022/06/17 05:42:30;;;;;;;4.17;3.00;;;;;;;;;;5029122;28;20293;-80
2022/06/17 05:44:57;;;;;;;3.60;3.30;;;;;;;;;;5029480;28;20235;-80
2022/06/17 05:47:24;;;;;;;5.20;3.03;;;;;;;;;;5028591;28;20267;-81
2022/06/17 05:49:51;;;;;;;5.50;2.73;;;;;;;;;;5029179;28;20206;-80
2022/06/17 05:52:18;;;;;;;3.37;3.07;;;;;;;;;;5029199;28;20224;-80
2022/06/17 05:54:47;;;;;;;3.03;2.73;;;;;;;;;;5029063;28;20258;-81
2022/06/17 05:57:14;;;;;;;2.80;2.60;;;;;;;;;;5027703;28;20245;-80
2022/06/17 05:59:41;;;;;;;3.43;3.13;;;;;;;;;;5029239;28;20223;-80
2022/06/17 06:02:08;;;;;;;3.13;2.60;;;;;;;;;;5029054;28;20260;-80
2022/06/17 06:04:35;;;;;;;4.03;2.70;;;;;;;;;;5028997;28;20203;-81
2022/06/17 06:07:02;;;;;;;3.30;3.00;;;;;;;;;;5028686;28;20678;-80
2022/06/17 06:09:29;;;;;;;3.67;2.67;;;;;;;;;;5028853;28;20203;-81
2022/06/17 06:11:57;;;;;;;3.37;2.67;;;;;;;;;;5028612;28;20679;-80
2022/06/17 06:14:24;;;;;;;3.90;2.40;;;;;;;;;;5028875;28;20198;-80
2022/06/17 06:16:51;;;;;;;6.63;3.17;;;;;;;;;;5028579;28;20671;-80
2022/06/17 06:19:18;;;;;;;2.53;2.33;;;;;;;;;;5028450;28;20218;-79
2022/06/17 06:21:45;;;;;;;3.30;2.63;;;;;;;;;;5028616;28;20675;-80
2022/06/17 06:24:12;;;;;;;2.73;2.20;;;;;;;;;;5028935;28;20206;-80
2022/06/17 06:26:40;;;;;;;2.60;2.40;;;;;;;;;;5028500;28;20273;-80
2022/06/17 06:29:08;;;;;;;3.07;2.40;;;;;;;;;;5028359;28;20195;-81
2022/06/17 06:31:37;;;;;;;2.70;2.43;;;;;;;;;;5028752;28;20230;-80
2022/06/17 06:34:04;;;;;;;2.60;2.40;;;;;;;;;;5028635;28;20198;-81
2022/06/17 06:36:31;;;;;;;3.00;2.20;;;;;;;;;;5028149;28;20245;-80
2022/06/17 06:38:58;;;;;;;4.00;2.30;;;;;;;;;;5028519;28;20258;-80
2022/06/17 06:41:26;;;;;;;2.77;2.53;;;;;;;;;;5028337;28;20202;-80
2022/06/17 06:43:53;;;;;;;3.50;2.13;;;;;;;;;;5028740;28;20201;-81
2022/06/17 06:46:39;;;;;;;5.87;2.30;;;;;;;;;;5027834;28;20681;-82
2022/06/17 06:49:06;;;;;;;6.57;2.13;;;;;;;;;;5028558;28;20281;-80
2022/06/17 06:51:33;;;;;;;4.40;2.23;;;;;;;;;;5028175;28;20621;-81
2022/06/17 06:54:00;;;;;;;4.43;2.40;;;;;;;;;;5028350;28;20203;-80
2022/06/17 06:56:27;;;;;;;5.63;2.50;;;;;;;;;;5027897;28;20255;-80
2022/06/17 06:58:54;;;;;;;5.37;2.27;;;;;;;;;;5028155;28;20275;-81
2022/06/17 07:01:21;;;;;;;4.87;2.33;;;;;;;;;;5028393;28;20588;-80
2022/06/17 07:03:49;;;;;;;4.27;2.57;;;;;;;;;;5028470;28;20211;-81
2022/06/17 07:06:16;;;;;;;2.03;1.90;;;;;;;;;;5027720;28;20203;-80
2022/06/17 07:08:44;;;;;;;2.20;2.00;;;;;;;;;;5029987;28;20685;-80
2022/06/17 07:11:13;;;;;;;2.10;2.00;;;;;;;;;;5031670;28;20281;-80
2022/06/17 07:13:40;;;;;;;3.77;2.07;;;;;;;;;;5031453;28;20203;-80
2022/06/17 07:16:07;;;;;;;3.23;2.10;;;;;;;;;;5031089;28;20214;-80
2022/06/17 07:18:35;;;;;;;2.97;1.83;;;;;;;;;;5031308;28;20336;-80
2022/06/17 07:21:05;;;;;;;2.20;2.00;;;;;;;;;;5031527;28;20255;-80
2022/06/17 07:23:34;;;;;;;2.10;1.80;;;;;;;;;;5031646;28;20726;-80
2022/06/17 07:26:05;;;;;;;2.57;1.60;;;;;;;;;;5030948;28;20693;-80
2022/06/17 07:28:32;;;;;;;1.80;1.50;;;;;;;;;;5031558;28;20274;-81
2022/06/17 07:31:00;;;;;;;1.93;1.80;;;;;;;;;;5031120;28;20732;-81
2022/06/17 07:33:29;;;;;;;1.97;1.83;;;;;;;;;;5031377;28;20194;-81
2022/06/17 07:35:59;;;;;;;4.90;2.10;;;;;;;;;;5031311;28;20246;-81
2022/06/17 07:41:16;;;;;;;2.00;1.80;;;;;;;;;;5031047;28;20187;-80
2022/06/17 07:43:43;;;;;;;2.53;1.80;;;;;;;;;;5031219;28;20207;-81
2022/06/17 07:46:10;;;;;;;2.53;1.60;;;;;;;;;;5030648;28;20290;-81
2022/06/17 07:48:38;;;;;;;1.83;1.70;;;;;;;;;;5031235;28;20202;-81
2022/06/17 07:51:06;;;;;;;2.80;1.53;;;;;;;;;;5031112;28;20199;-81
2022/06/17 07:53:35;;;;;;;2.83;1.73;;;;;;;;;;5031002;28;20194;-81
2022/06/17 07:56:04;;;;;;;2.23;1.57;;;;;;;;;;5030703;28;20203;-80
2022/06/17 07:58:31;;;;;;;1.67;1.57;;;;;;;;;;5030763;28;20230;-81
2022/06/17 08:00:58;;;;;;;2.93;2.17;;;;;;;;;;5030699;28;20263;-81
2022/06/17 08:03:25;;;;;;;2.57;1.60;;;;;;;;;;5022282;28;20271;-80
2022/06/17 08:05:54;;;;;;;2.73;1.63;;;;;;;;;;5010816;28;20287;-81
2022/06/17 08:08:23;;;;;;;2.37;2.17;;;;;;;;;;5011269;28;20199;-81
2022/06/17 08:10:53;;;;;;;1.60;1.50;;;;;;;;;;5010565;28;20196;-80
2022/06/17 08:13:20;;;;;;;1.60;1.50;;;;;;;;;;5011145;28;20282;-81
2022/06/17 08:15:48;;;;;;;3.37;2.03;;;;;;;;;;5010661;28;20735;-81
2022/06/17 08:18:15;;;;;;;3.73;2.10;;;;;;;;;;5010923;28;20627;-81
2022/06/17 08:20:42;;;;;;;3.37;1.93;;;;;;;;;;5009908;28;20223;-81
2022/06/17 08:23:10;;;;;;;3.30;1.90;;;;;;;;;;5010764;28;20239;-81
2022/06/17 08:25:38;;;;;;;2.83;1.80;;;;;;;;;;5010604;28;20203;-80
2022/06/17 08:28:09;;;;;;;2.33;2.00;;;;;;;;;;5010817;28;20192;-81
2022/06/17 08:30:39;;;;;;;2.73;2.17;;;;;;;;;;5010508;28;20187;-80
2022/06/17 08:33:06;;;;;;;2.43;1.93;;;;;;;;;;5010610;28;20206;-81
2022/06/17 08:35:35;;;;;;;2.30;2.10;;;;;;;;;;5010369;28;20277;-81
2022/06/17 08:38:05;;;;;;;3.33;2.67;;;;;;;;;;5010758;28;20220;-81
2022/06/17 08:40:45;;;;;;;3.07;1.80;;;;;;;;;;5010331;28;20584;-81
2022/06/17 08:43:46;;;;;;;1.70;1.60;;;;;;;;;;5010268;28;20226;-81
2022/06/17 08:46:21;;;;;;;1.87;1.73;;;;;;;;;;5010191;28;20620;-81
2022/06/17 08:49:18;;;;;;;4.33;2.00;;;;;;;;;;5010410;28;20227;-81
2022/06/17 08:51:59;;;;;;;2.30;2.10;;;;;;;;;;4988830;28;20238;-81
2022/06/17 08:54:46;;;;;;;4.80;2.30;;;;;;;;;;5010305;28;20192;-80
2022/06/17 08:57:18;;;;;;;3.00;2.07;;;;;;;;;;5010436;28;20188;-81
2022/06/17 09:00:05;;;;;;;2.40;1.83;;;;;;;;;;5009859;28;20232;-81
2022/06/17 09:02:50;;;;;;;2.73;1.77;;;;;;;;;;5010024;28;20191;-81
2022/06/17 09:05:30;;;;;;;6.83;2.90;;;;;;;;;;5010457;28;20191;-81
2022/06/17 09:08:07;;;;;;;1.80;1.70;;;;;;;;;;5010037;28;20223;-81
2022/06/17 09:10:39;;;;;;;3.60;2.07;;;;;;;;;;5009962;28;20252;-80
2022/06/17 09:13:31;;;;;;;3.50;2.13;;;;;;;;;;5010300;28;20184;-81
2022/06/17 09:16:03;;;;;;;1.77;1.67;;;;;;;;;;5006845;28;20221;-81
2022/06/17 09:18:32;;;;;;;1.87;1.67;;;;;;;;;;5010266;28;20223;-80
2022/06/17 09:21:03;;;;;;;2.10;1.90;;;;;;;;;;5009734;28;20227;-81
2022/06/17 09:23:32;;;;;;;1.67;1.57;;;;;;;;;;5010139;28;20183;-81
2022/06/17 09:26:00;;;;;;;3.77;1.97;;;;;;;;;;5009992;28;20260;-81
2022/06/17 09:28:31;;;;;;;2.27;2.07;;;;;;;;;;5010111;28;20627;-81
2022/06/17 09:31:04;;;;;;;2.60;1.90;;;;;;;;;;5008844;28;20549;-81
2022/06/17 09:33:35;;;;;;;2.50;2.13;;;;;;;;;;5009276;28;20648;-81
2022/06/17 09:36:08;;;;;;;2.23;1.70;;;;;;;;;;5009568;28;20183;-81
2022/06/17 09:38:40;;;;;;;3.70;2.17;;;;;;;;;;5009965;28;20641;-81
2022/06/17 09:41:10;;;;;;;3.63;1.90;;;;;;;;;;5009802;28;20596;-81
2022/06/17 09:43:41;;;;;;;2.20;1.70;;;;;;;;;;5009785;28;20189;-81
2022/06/17 09:46:15;;;;;;;1.90;1.80;;;;;;;;;;5009431;28;20284;-81
2022/06/17 09:48:47;;;;;;;3.37;1.87;;;;;;;;;;5009497;28;20223;-81
2022/06/17 09:51:17;;;;;;;2.40;1.97;;;;;;;;;;5009344;28;20183;-81
2022/06/17 09:53:49;;;;;;;3.10;2.63;;;;;;;;;;5009753;28;20270;-81
2022/06/17 09:56:20;;;;;;;2.07;1.87;;;;;;;;;;5009265;28;20219;-81
2022/06/17 09:58:50;;;;;;;3.47;2.00;;;;;;;;;;5009342;28;20223;-81
2022/06/17 10:01:20;;;;;;;2.67;1.97;;;;;;;;;;5009430;28;20212;-81
2022/06/17 10:03:47;;;;;;;2.83;1.93;;;;;;;;;;5009066;28;20196;-81
2022/06/17 10:06:25;;;;;;;3.33;2.30;;;;;;;;;;5009050;28;20675;-81
2022/06/17 10:09:05;;;;;;;6.20;2.17;;;;;;;;;;5009531;28;20191;-81
2022/06/17 10:11:36;;;;;;;3.17;2.33;;;;;;;;;;5009112;28;20576;-81
2022/06/17 10:14:14;;;;;;;2.35;2.13;;;;;;;;;;5009485;28;20188;-81
2022/06/17 10:19:36;;;;;;;3.30;2.20;;;;;;;;;;5009068;28;20215;-81
2022/06/17 10:22:14;;;;;;;2.53;2.33;;;;;;;;;;5008689;28;20188;-81
2022/06/17 10:24:49;;;;;;;2.15;2.00;;;;;;;;;;5009331;28;20223;-81
2022/06/17 10:27:33;;;;;;;2.28;2.17;;;;;;;;;;5008734;28;20183;-81
2022/06/17 10:30:06;;;;;;;2.80;2.03;;;;;;;;;;5009121;28;20184;-81
2022/06/17 10:32:36;;;;;;;4.53;1.97;;;;;;;;;;5008561;28;20279;-81
2022/06/17 10:35:05;;;;;;;4.70;2.10;;;;;;;;;;5009286;28;20200;-81
2022/06/17 10:37:35;;;;;;;2.28;2.08;;;;;;;;;;5008932;28;20199;-81
2022/06/17 10:40:03;;;;;;;3.03;2.57;;;;;;;;;;5008874;28;20310;-81
2022/06/17 10:42:30;;;;;;;3.15;2.50;;;;;;;;;;5008662;28;20749;-81
2022/06/17 10:45:01;;;;;;;3.83;2.07;;;;;;;;;;5012624;28;20327;-81
2022/06/17 10:47:39;;;;;;;2.83;2.13;;;;;;;;;;5012005;28;20231;-81
2022/06/17 10:50:12;;;;;;;4.67;2.30;;;;;;;;;;5012380;28;20198;-81
2022/06/17 10:52:41;;;;;;;2.60;2.13;;;;;;;;;;5011977;28;20200;-81
2022/06/17 10:55:16;;;;;;;3.05;2.20;;;;;;;;;;5012416;28;20258;-81
2022/06/17 10:58:07;;;;;;;3.70;2.42;;;;;;;;;;5011777;28;20625;-81
2022/06/17 11:00:34;;;;;;;2.13;2.00;;;;;;;;;;5011982;28;20315;-81
2022/06/17 11:03:17;;;;;;;2.53;2.22;;;;;;;;;;5011969;28;20278;-81
2022/06/17 11:05:54;;;;;;;2.07;1.97;;;;;;;;;;5011879;28;20188;-81
2022/06/17 11:08:22;;;;;;;2.40;1.90;;;;;;;;;;5011770;28;20188;-81
2022/06/17 11:10:52;;;;;;;4.00;2.65;;;;;;;;;;5012041;28;20203;-81
2022/06/17 11:13:20;;;;;;;3.92;2.53;;;;;;;;;;5011863;28;20300;-81
2022/06/17 11:15:50;;;;;;;2.65;2.45;;;;;;;;;;5011371;28;20219;-81
2022/06/17 11:18:23;;;;;;;2.45;2.25;;;;;;;;;;5012112;28;20195;-81
2022/06/17 11:20:56;;;;;;;5.68;2.55;;;;;;;;;;5011754;28;20303;-81
2022/06/17 11:23:24;;;;;;;2.60;2.40;;;;;;;;;;5011939;28;20240;-81
2022/06/17 11:25:56;;;;;;;3.15;2.42;;;;;;;;;;5011210;28;20227;-81
2022/06/17 11:28:26;;;;;;;2.30;2.10;;;;;;;;;;5011958;28;20249;-81
2022/06/17 11:30:55;;;;;;;2.75;2.55;;;;;;;;;;5011254;28;20196;-81
2022/06/17 11:33:24;;;;;;;2.97;2.78;;;;;;;;;;5011518;28;20256;-81
2022/06/17 11:36:00;;;;;;;2.80;2.60;;;;;;;;;;5011345;28;20203;-81
2022/06/17 11:38:28;;;;;;;2.72;2.50;;;;;;;;;;5011508;28;20679;-81
2022/06/17 11:40:56;;;;;;;3.35;2.17;;;;;;;;;;5011180;28;20235;-81
2022/06/17 11:43:28;;;;;;;3.55;2.83;;;;;;;;;;5011716;28;20226;-81
2022/06/17 11:45:55;;;;;;;2.60;2.40;;;;;;;;;;5011054;28;20343;-81
2022/06/17 11:48:24;;;;;;;2.67;2.30;;;;;;;;;;5011372;28;20200;-81
2022/06/17 11:51:03;;;;;;;2.92;2.72;;;;;;;;;;5011436;28;20256;-81
2022/06/17 11:53:31;;;;;;;2.55;2.35;;;;;;;;;;5011296;28;20275;-81
2022/06/17 11:55:59;;;;;;;2.97;2.67;;;;;;;;;;5010043;28;20282;-81
2022/06/17 11:58:26;;;;;;;3.10;2.80;;;;;;;;;;5011124;28;20664;-81
2022/06/17 12:00:57;;;;;;;4.80;2.60;;;;;;;;;;5010792;28;20262;-81
2022/06/17 12:03:43;;;;;;;2.58;2.42;;;;;;;;;;5011145;28;20249;-81
2022/06/17 12:06:21;;;;;;;3.85;2.70;;;;;;;;;;5010677;28;20227;-81
2022/06/17 12:08:54;;;;;;;3.28;2.90;;;;;;;;;;5010998;28;20660;-81
2022/06/17 12:11:27;;;;;;;2.85;2.65;;;;;;;;;;5010785;28;20712;-81
2022/06/17 12:13:59;;;;;;;3.08;2.75;;;;;;;;;;5010689;28;20207;-81
2022/06/17 12:16:36;;;;;;;2.63;2.42;;;;;;;;;;5011080;28;20351;-81
2022/06/17 12:19:04;;;;;;;2.60;2.40;;;;;;;;;;5011221;28;20192;-81
2022/06/17 12:21:39;;;;;;;6.28;2.58;;;;;;;;;;5010529;28;20261;-81
2022/06/17 12:24:11;;;;;;;3.15;2.90;;;;;;;;;;5010544;28;20223;-82
2022/06/17 12:26:48;;;;;;;3.03;2.70;;;;;;;;;;5010566;28;20248;-81
2022/06/17 12:29:19;;;;;;;3.08;2.85;;;;;;;;;;5011152;28;20244;-81
2022/06/17 12:31:49;;;;;;;3.72;2.58;;;;;;;;;;5010587;28;20191;-81
2022/06/17 12:34:27;;;;;;;3.88;2.88;;;;;;;;;;5010724;28;20241;-81
2022/06/17 12:36:56;;;;;;;3.20;3.00;;;;;;;;;;5010445;28;20652;-81
2022/06/17 12:39:30;;;;;;;2.85;2.60;;;;;;;;;;5010873;28;20690;-81
2022/06/17 12:42:01;;;;;;;2.85;2.65;;;;;;;;;;5010663;28;20212;-81
2022/06/17 12:44:42;;;;;;;3.45;3.00;;;;;;;;;;5010519;28;20248;-81
2022/06/17 12:47:15;;;;;;;4.18;2.72;;;;;;;;;;5010080;28;20239;-81
2022/06/17 12:55:35;;;;;;;5.50;2.90;;;;;;;;;;5010015;28;20226;-81
2022/06/17 12:58:13;;;;;;;4.85;2.92;;;;;;;;;;5010198;28;20203;-81
2022/06/17 13:00:43;;;;;;;3.38;3.08;;;;;;;;;;5010230;28;20208;-81
2022/06/17 13:03:40;;;;;;;4.13;3.38;;;;;;;;;;5010149;28;20199;-82
2022/06/17 13:06:15;;;;;;;3.35;2.90;;;;;;;;;;5009488;28;20240;-81
2022/06/17 13:08:48;;;;;;;4.97;3.35;;;;;;;;;;5010080;28;20229;-81
2022/06/17 13:11:23;;;;;;;4.40;2.90;;;;;;;;;;5009882;28;20191;-81
2022/06/17 13:14:03;;;;;;;3.30;3.00;;;;;;;;;;5009853;28;20191;-81
2022/06/17 13:16:33;;;;;;;5.93;3.58;;;;;;;;;;5010095;28;20204;-81
2022/06/17 13:19:06;;;;;;;2.80;2.60;;;;;;;;;;5009965;28;20232;-81
2022/06/17 13:21:39;;;;;;;4.03;2.97;;;;;;;;;;5009972;28;20261;-81
2022/06/17 13:24:12;;;;;;;5.40;3.00;;;;;;;;;;5009913;28;20244;-81
2022/06/17 13:26:45;;;;;;;4.03;2.92;;;;;;;;;;5010008;28;20199;-81
2022/06/17 13:29:20;;;;;;;3.65;3.20;;;;;;;;;;5009829;28;20237;-81
2022/06/17 13:31:51;;;;;;;3.42;3.00;;;;;;;;;;5009768;28;20186;-81
2022/06/17 13:34:22;;;;;;;4.10;2.95;;;;;;;;;;5010107;28;20215;-81
2022/06/17 13:36:55;;;;;;;3.25;2.97;;;;;;;;;;5009524;28;20180;-81
2022/06/17 13:39:26;;;;;;;4.72;3.30;;;;;;;;;;5009494;28;20652;-81
2022/06/17 13:41:58;;;;;;;3.53;3.00;;;;;;;;;;5009136;28;20276;-80
2022/06/17 13:44:33;;;;;;;3.25;3.03;;;;;;;;;;5009906;28;20240;-81
2022/06/17 13:47:05;;;;;;;2.85;2.63;;;;;;;;;;5009304;28;20319;-81
2022/06/17 13:49:38;;;;;;;4.03;2.92;;;;;;;;;;5009530;28;20652;-81
2022/06/17 13:52:16;;;;;;;3.28;3.08;;;;;;;;;;5009058;28;20632;-81
2022/06/17 13:54:48;;;;;;;4.03;2.75;;;;;;;;;;5009466;28;20187;-81
2022/06/17 13:57:21;;;;;;;3.95;3.55;;;;;;;;;;5009209;28;20188;-81
2022/06/17 13:59:51;;;;;;;4.22;3.05;;;;;;;;;;5009397;28;20223;-81
2022/06/17 14:02:30;;;;;;;3.75;3.42;;;;;;;;;;5008910;28;20235;-81
2022/06/17 14:05:28;;;;;;;3.47;3.17;;;;;;;;;;5009688;28;20191;-81
2022/06/17 14:08:11;;;;;;;2.90;2.70;;;;;;;;;;5008563;28;20252;-81
2022/06/17 14:10:47;;;;;;;5.65;4.32;;;;;;;;;;5009387;28;20270;-81
2022/06/17 14:13:24;;;;;;;7.10;3.70;;;;;;;;;;5008946;28;20187;-81
2022/06/17 14:15:54;;;;;;;3.88;3.58;;;;;;;;;;5009262;28;20184;-81
2022/06/17 14:18:24;;;;;;;4.63;3.58;;;;;;;;;;5010406;28;20635;-81
2022/06/17 14:21:01;;;;;;;3.70;3.40;;;;;;;;;;5012212;28;20223;-81
2022/06/17 14:23:45;;;;;;;14.63;3.63;;;;;;;;;;5017124;28;20194;-81
2022/06/17 14:26:12;;;;;;;4.32;3.55;;;;;;;;;;5031793;28;20241;-81
2022/06/17 14:28:48;;;;;;;5.13;3.10;;;;;;;;;;5032458;28;20210;-81
2022/06/17 14:31:31;;;;;;;4.40;4.10;;;;;;;;;;5031694;28;20251;-82
2022/06/17 14:34:06;;;;;;;5.47;4.85;;;;;;;;;;5032197;28;20193;-81
2022/06/17 14:36:51;;;;;;;6.47;4.23;;;;;;;;;;5032006;28;20190;-81
2022/06/17 14:39:59;;;;;;;6.60;4.70;;;;;;;;;;5032163;28;20186;-81
2022/06/17 14:42:51;;;;;;;5.03;4.63;;;;;;;;;;5031626;28;20222;-81
2022/06/17 14:45:50;;;;;;;7.33;4.60;;;;;;;;;;5032167;28;20628;-81
2022/06/17 14:48:29;;;;;;;4.80;4.40;;;;;;;;;;5032258;28;20215;-81
2022/06/17 14:50:59;;;;;;;6.83;4.67;;;;;;;;;;5031829;28;20246;-81
2022/06/17 14:53:34;;;;;;;10.97;5.00;;;;;;;;;;5031654;28;20236;-81
2022/06/17 14:56:34;;;;;;;5.30;4.90;;;;;;;;;;5031654;28;20235;-80
2022/06/17 14:59:12;;;;;;;5.03;4.53;;;;;;;;;;5011814;28;20194;-81
2022/06/17 15:01:44;;;;;;;5.00;4.60;;;;;;;;;;5031609;28;20206;-80
2022/06/17 15:04:16;;;;;;;5.33;4.67;;;;;;;;;;5032038;28;20197;-81
2022/06/17 15:06:45;;;;;;;5.20;4.70;;;;;;;;;;5031590;28;20206;-81
2022/06/17 15:09:23;;;;;;;4.63;4.30;;;;;;;;;;5031927;28;20195;-81
2022/06/17 15:11:55;;;;;;;6.20;4.53;;;;;;;;;;5031571;28;20179;-80
2022/06/17 15:14:26;;;;;;;6.20;4.87;;;;;;;;;;5031686;28;20203;-81
2022/06/17 15:16:55;;;;;;;5.00;4.70;;;;;;;;;;5031667;28;20206;-80
2022/06/17 15:19:35;;;;;;;5.03;4.57;;;;;;;;;;5031642;28;20626;-81
2022/06/17 15:22:07;;;;;;;6.37;4.67;;;;;;;;;;5031284;28;20683;-81
2022/06/17 15:24:57;;;;;;;4.53;4.13;;;;;;;;;;5021943;28;20293;-81
2022/06/17 15:27:34;;;;;;;4.87;4.47;;;;;;;;;;5017701;28;20230;-80